Accueil
METAR-TAF:

METAR-TAF

Aéroports :

Aéroport d'Eindhoven

Eindhoven, Pays-Bas

latitude: 51-27N, longitude: 005-25E, altitude: 23 m

Observation

Le bulletin a été fait il y a 25 minutes, à 18:55 UTC
Vent 7 kt de nord, variant entre nord/nord-ouest et nord-est
Température 23°C
Humidité 44%
Pression 1019 hPa
Visibilité 10 km ou plus
Ciel couvert à une hauteur de 38000 ft

METAR: EHEH 151855Z AUTO 01007KT 340V040 9999 OVC380 23/10 Q1019 BLU NOSIG

Heure: 21:20 (19:20 UTC)

Prévision

Le bulletin a été fait il y a 2 heures et 17 minutes, à 17:03 UTC
Prévision valable du 15 à 18 UTC au 16 à 24 UTC
Vent 6 kt de nord/nord-est
Visibilité 10 km ou plus
pas de nuages en-dessous de 1500 mètres et pas de cumulonimbus.
Evoluant progressivement
du 16 à 01 UTC au 16 à 04 UTC
Vent 4 kt de est
Evoluant progressivement
du 16 à 10 UTC au 16 à 12 UTC
Vent 5 kt de sud

TAF: EHEH 151703Z 1518/1624 03006KT CAVOK BECMG 1601/1604 09004KT BECMG 1610/1612 17005KT

Observations et prévisions météorologiques de plus de 4000 aéroports (messages METAR et TAF).

Les stations disponibles sont représentées par des disques jaunes et rouges sur la carte.

Passer la souris dessus pour voir le nom de la station.

Cliquer dessus pour voir les observations et prévisions météorologiques.

Pour changer de carte: cliquez sur les boutons verts avec une croix noire pour zoomer, sur le bouton vert avec un tiret pour effectuer un zoom arrière, ou sur les flèches vertes pour les cartes adjacentes.


METAR-TAF: